Time;durP1;ratioP1;P1;durP2;ratioP2;P2;SDS_P1;SDS_P2;PMS_P1;PMS_P2;Temp;Humidity;BMP_temperature;BMP_pressure;BME280_temperature;BME280_humidity;BME280_pressure;Samples;Min_cycle;Max_cycle;Signal;HPM_P1;HPM_P2
2021/10/28 00:13:08;;;;;;;11.65;6.55;;;10.70;99.90;;;;;;5048355;28;20063;-68
2021/10/28 00:15:37;;;;;;;9.73;7.30;;;10.70;99.90;;;;;;5031920;28;20021;-68
2021/10/28 00:20:34;;;;;;;10.57;6.43;;;10.70;99.90;;;;;;5031207;28;20033;-68
2021/10/28 00:23:02;;;;;;;7.47;5.95;;;10.70;99.90;;;;;;5030840;28;20041;-69
2021/10/28 00:25:28;;;;;;;7.20;5.93;;;10.70;99.90;;;;;;5031196;28;20399;-68
2021/10/28 00:27:54;;;;;;;10.43;7.22;;;10.70;99.90;;;;;;5030574;28;20049;-68
2021/10/28 00:30:20;;;;;;;14.02;6.43;;;10.70;99.90;;;;;;5035377;28;20037;-67
2021/10/28 00:32:46;;;;;;;8.35;6.20;;;10.60;99.90;;;;;;5035240;28;20105;-68
2021/10/28 00:35:13;;;;;;;6.93;6.13;;;10.50;99.90;;;;;;5033223;28;20132;-68
2021/10/28 00:37:39;;;;;;;9.13;5.63;;;10.50;99.90;;;;;;5035238;28;20113;-68
2021/10/28 00:40:09;;;;;;;9.77;6.88;;;10.60;99.90;;;;;;5034638;28;20109;-69
2021/10/28 00:42:36;;;;;;;9.25;6.60;;;10.50;99.90;;;;;;5034356;28;20026;-68
2021/10/28 00:45:03;;;;;;;9.90;6.97;;;10.60;99.90;;;;;;5034009;28;20025;-68
2021/10/28 00:47:33;;;;;;;11.90;7.30;;;10.60;99.90;;;;;;5033963;28;20036;-68
2021/10/28 00:49:59;;;;;;;10.40;7.05;;;10.60;99.90;;;;;;5033033;28;20051;-68
2021/10/28 00:52:25;;;;;;;10.27;6.95;;;10.50;99.90;;;;;;5035047;28;20044;-69
2021/10/28 00:54:51;;;;;;;8.32;5.93;;;10.50;99.90;;;;;;5034875;28;20451;-68
2021/10/28 00:57:16;;;;;;;9.18;7.03;;;10.50;99.90;;;;;;5032806;28;20120;-69
2021/10/28 00:59:42;;;;;;;9.18;7.72;;;10.50;99.90;;;;;;5034408;28;20025;-68
2021/10/28 01:02:08;;;;;;;12.15;7.72;;;10.40;99.90;;;;;;5034258;28;20018;-68
2021/10/28 01:04:34;;;;;;;8.25;6.75;;;10.50;99.90;;;;;;5034668;28;20392;-68
2021/10/28 01:07:00;;;;;;;12.07;7.13;;;10.60;99.90;;;;;;5033784;28;20029;-68
2021/10/28 01:09:26;;;;;;;9.85;7.43;;;10.50;99.90;;;;;;5034646;28;20136;-67
2021/10/28 01:11:52;;;;;;;9.15;7.45;;;10.60;99.90;;;;;;5033033;28;20053;-68
2021/10/28 01:14:18;;;;;;;7.75;6.95;;;10.50;99.90;;;;;;5034143;28;20109;-68
2021/10/28 01:16:44;;;;;;;11.25;7.85;;;10.50;99.90;;;;;;5034716;28;20423;-68
2021/10/28 01:19:10;;;;;;;10.10;7.50;;;10.40;99.90;;;;;;5033993;28;20030;-68
2021/10/28 01:21:35;;;;;;;7.82;6.90;;;10.40;99.90;;;;;;5033048;28;20025;-67
2021/10/28 01:24:02;;;;;;;11.30;7.72;;;10.50;99.90;;;;;;5031989;28;20026;-67
2021/10/28 01:26:28;;;;;;;11.77;7.60;;;10.50;99.90;;;;;;5032842;28;20029;-68
2021/10/28 01:28:57;;;;;;;8.65;6.95;;;10.50;99.90;;;;;;5032513;28;20100;-68
2021/10/28 01:31:26;;;;;;;11.27;7.95;;;10.50;99.90;;;;;;5032869;28;20029;-69
2021/10/28 01:33:52;;;;;;;10.70;7.70;;;10.50;99.90;;;;;;5032844;28;20084;-68
2021/10/28 01:36:19;;;;;;;15.05;7.90;;;10.40;99.90;;;;;;5033772;28;20135;-67
2021/10/28 01:38:45;;;;;;;10.18;8.07;;;10.40;99.90;;;;;;5033935;28;20022;-68
2021/10/28 01:41:10;;;;;;;10.20;8.23;;;10.40;99.90;;;;;;5032088;28;20037;-68
2021/10/28 01:43:36;;;;;;;9.15;7.47;;;10.40;99.90;;;;;;5033694;28;20025;-68
2021/10/28 01:46:03;;;;;;;11.13;8.20;;;10.40;99.90;;;;;;5033164;28;20030;-68
2021/10/28 01:48:29;;;;;;;8.48;7.07;;;10.40;99.90;;;;;;5042501;28;20518;-68
2021/10/28 01:50:55;;;;;;;8.90;7.28;;;10.40;99.90;;;;;;5041278;28;20053;-68
2021/10/28 01:53:21;;;;;;;13.32;8.35;;;10.30;99.90;;;;;;5033697;28;20131;-68
2021/10/28 01:55:47;;;;;;;15.43;8.32;;;10.30;99.90;;;;;;5033866;28;20092;-68
2021/10/28 01:58:16;;;;;;;10.27;7.50;;;10.30;99.90;;;;;;5033100;28;20032;-67
2021/10/28 02:00:43;;;;;;;14.30;7.72;;;10.30;99.90;;;;;;5032440;28;20045;-68
2021/10/28 02:03:09;;;;;;;11.27;7.60;;;10.30;99.90;;;;;;5031434;28;20359;-68
2021/10/28 02:05:36;;;;;;;14.02;9.10;;;10.30;99.90;;;;;;5033953;28;20021;-68
2021/10/28 02:08:02;;;;;;;16.67;7.55;;;10.30;99.90;;;;;;5033767;28;20046;-67
2021/10/28 02:10:28;;;;;;;15.40;8.15;;;10.20;99.90;;;;;;5033884;28;20034;-67
2021/10/28 02:12:56;;;;;;;12.00;7.78;;;10.10;99.90;;;;;;5032093;28;20535;-68
2021/10/28 02:15:22;;;;;;;9.93;8.40;;;10.20;99.90;;;;;;5031490;28;20029;-68
2021/10/28 02:17:48;;;;;;;13.93;8.05;;;10.20;99.90;;;;;;5032058;28;20072;-70
2021/10/28 02:20:16;;;;;;;12.80;7.85;;;10.20;99.90;;;;;;5031465;28;20037;-67
2021/10/28 02:22:42;;;;;;;17.58;8.05;;;10.20;99.90;;;;;;5031742;28;20037;-68
2021/10/28 02:25:09;;;;;;;18.45;9.43;;;10.10;99.90;;;;;;5032464;28;20072;-67
2021/10/28 02:27:35;;;;;;;16.85;9.10;;;10.10;99.90;;;;;;5064611;28;20049;-67
2021/10/28 02:30:01;;;;;;;12.95;8.20;;;10.10;99.90;;;;;;5031152;28;20041;-68
2021/10/28 02:32:26;;;;;;;11.35;7.80;;;10.00;99.90;;;;;;5033127;28;20407;-68
2021/10/28 02:34:52;;;;;;;14.07;8.63;;;10.00;99.90;;;;;;5031835;28;20025;-68
2021/10/28 02:37:19;;;;;;;8.68;7.18;;;10.00;99.90;;;;;;5032467;28;20112;-68
2021/10/28 02:39:47;;;;;;;10.15;8.40;;;10.00;99.90;;;;;;5032881;28;20071;-67
2021/10/28 02:42:13;;;;;;;11.07;7.47;;;10.00;99.90;;;;;;5032317;28;20017;-67
2021/10/28 02:44:39;;;;;;;9.63;7.28;;;10.00;99.90;;;;;;5032568;28;20036;-67
2021/10/28 02:47:04;;;;;;;9.60;7.90;;;10.00;99.90;;;;;;5030787;28;20075;-67
2021/10/28 02:49:30;;;;;;;16.00;8.27;;;10.00;99.90;;;;;;5032359;28;20060;-67
2021/10/28 02:51:56;;;;;;;11.55;8.13;;;10.00;99.90;;;;;;5030594;28;20030;-68
2021/10/28 02:54:23;;;;;;;10.30;7.20;;;10.00;99.90;;;;;;5031987;28;20044;-67
2021/10/28 02:56:49;;;;;;;14.48;8.57;;;10.00;99.90;;;;;;5031014;28;20029;-68
2021/10/28 02:59:15;;;;;;;10.43;8.20;;;9.90;99.90;;;;;;5031461;28;20111;-68
2021/10/28 03:01:47;;;;;;;11.63;8.13;;;9.90;99.90;;;;;;5031081;28;20468;-68
2021/10/28 03:04:14;;;;;;;14.32;8.77;;;9.90;99.90;;;;;;5032086;28;20471;-68
2021/10/28 03:06:41;;;;;;;13.32;9.85;;;9.80;99.90;;;;;;5032079;28;20103;-67
2021/10/28 03:09:09;;;;;;;10.18;8.00;;;9.80;99.90;;;;;;5030336;28;20037;-66
2021/10/28 03:11:35;;;;;;;14.45;8.90;;;9.80;99.90;;;;;;5031257;28;20112;-66
2021/10/28 03:14:02;;;;;;;12.13;8.98;;;9.80;99.90;;;;;;5032060;28;20386;-79
2021/10/28 03:16:49;;;;;;;12.27;8.98;;;9.90;99.90;;;;;;5031314;28;20025;-67
2021/10/28 03:27:39;;;;;;;17.65;9.63;;;9.80;99.90;;;;;;5032053;28;20141;-68
2021/10/28 03:30:06;;;;;;;13.65;9.30;;;9.90;99.90;;;;;;5029616;28;20479;-68
2021/10/28 03:32:32;;;;;;;16.23;9.40;;;9.80;99.90;;;;;;5030475;28;20029;-67
2021/10/28 03:34:58;;;;;;;15.57;9.75;;;9.80;99.90;;;;;;5031958;28;20033;-67
2021/10/28 03:37:27;;;;;;;12.68;9.32;;;9.80;99.90;;;;;;5029990;28;20428;-67
2021/10/28 04:20:32;;;;;;;11.45;8.48;;;9.50;99.90;;;;;;5029359;28;20088;-68
2021/10/28 04:31:11;;;;;;;18.25;10.45;;;9.60;99.90;;;;;;5030700;28;20091;-68
2021/10/28 04:33:41;;;;;;;22.65;10.70;;;9.50;99.90;;;;;;5029799;28;20417;-67
2021/10/28 04:36:08;;;;;;;20.08;11.25;;;9.50;99.90;;;;;;5030609;28;20057;-68
2021/10/28 04:38:34;;;;;;;13.23;10.02;;;9.50;99.90;;;;;;5031066;28;20485;-68
2021/10/28 04:41:00;;;;;;;12.95;9.13;;;9.40;99.90;;;;;;5031224;28;20038;-69
2021/10/28 04:43:25;;;;;;;14.88;10.32;;;9.50;99.90;;;;;;5029269;28;20334;-67
2021/10/28 04:45:51;;;;;;;17.88;10.88;;;9.50;99.90;;;;;;5031145;28;20372;-68
2021/10/28 04:48:17;;;;;;;14.77;10.55;;;9.50;99.90;;;;;;5030481;28;20049;-68
2021/10/28 04:50:43;;;;;;;15.07;10.35;;;9.50;99.90;;;;;;5030851;28;20036;-68
2021/10/28 04:53:08;;;;;;;21.08;12.30;;;9.40;99.90;;;;;;5029982;28;20025;-68
2021/10/28 04:55:34;;;;;;;17.25;10.90;;;9.30;99.90;;;;;;5029260;28;20037;-67
2021/10/28 04:58:00;;;;;;;14.77;10.65;;;9.50;99.90;;;;;;5029498;28;20029;-67
2021/10/28 05:00:26;;;;;;;16.15;10.38;;;9.50;99.90;;;;;;5028901;28;20029;-68
2021/10/28 05:02:51;;;;;;;16.23;12.02;;;9.50;99.90;;;;;;5029453;28;20029;-67
2021/10/28 05:05:17;;;;;;;12.75;11.30;;;9.40;99.90;;;;;;5028642;28;20426;-66
2021/10/28 05:07:43;;;;;;;16.60;11.27;;;9.30;99.90;;;;;;5033073;28;20152;-67
2021/10/28 05:10:09;;;;;;;17.58;11.98;;;9.30;99.90;;;;;;5041925;28;20033;-71
2021/10/28 05:12:35;;;;;;;29.05;12.10;;;9.30;99.90;;;;;;5046105;28;20021;-68
2021/10/28 05:15:00;;;;;;;33.17;12.82;;;9.30;99.90;;;;;;5051708;28;20432;-68
2021/10/28 05:17:26;;;;;;;21.75;12.63;;;9.30;99.90;;;;;;5052307;28;20125;-67
2021/10/28 05:19:52;;;;;;;19.25;11.98;;;9.10;99.90;;;;;;5052829;28;20415;-68
2021/10/28 05:22:18;;;;;;;24.30;13.10;;;8.90;99.90;;;;;;5053564;28;20043;-68
2021/10/28 05:24:44;;;;;;;17.63;11.18;;;9.00;99.90;;;;;;5053642;28;20032;-67
2021/10/28 05:27:10;;;;;;;239.75;31.52;;;9.00;99.90;;;;;;5051788;28;20045;-68
2021/10/28 05:29:35;;;;;;;23.13;15.43;;;9.10;99.90;;;;;;5054320;28;20039;-69
2021/10/28 05:32:01;;;;;;;22.02;15.77;;;9.90;99.90;;;;;;5053731;28;20033;-68
2021/10/28 05:34:28;;;;;;;31.88;14.18;;;9.90;99.90;;;;;;5052934;28;20064;-68
2021/10/28 05:36:54;;;;;;;18.00;12.27;;;10.20;99.90;;;;;;5051127;28;20512;-67
2021/10/28 05:39:20;;;;;;;20.60;13.55;;;10.30;99.90;;;;;;5051020;28;20072;-68
2021/10/28 05:41:47;;;;;;;17.05;12.32;;;9.90;99.90;;;;;;5050882;28;20056;-69
2021/10/28 05:44:12;;;;;;;16.80;12.60;;;9.70;99.90;;;;;;5050241;28;20036;-67
2021/10/28 05:46:38;;;;;;;21.20;13.50;;;9.30;99.90;;;;;;5051300;28;20025;-71
2021/10/28 05:49:04;;;;;;;20.40;13.07;;;9.30;99.90;;;;;;5053209;28;20033;-65
2021/10/28 05:51:29;;;;;;;18.02;13.23;;;9.00;99.90;;;;;;5068351;28;20477;-69
2021/10/28 05:53:55;;;;;;;17.65;12.40;;;9.00;99.90;;;;;;5073550;28;20455;-68
2021/10/28 05:56:21;;;;;;;19.98;12.65;;;8.90;99.90;;;;;;5049971;28;20036;-67
2021/10/28 05:58:46;;;;;;;17.73;12.85;;;8.90;99.90;;;;;;5052874;28;20033;-68
2021/10/28 06:01:12;;;;;;;52.33;15.40;;;8.70;99.90;;;;;;5052380;28;20400;-69
2021/10/28 06:03:38;;;;;;;50.97;15.23;;;8.80;99.90;;;;;;5053320;28;20029;-67
2021/10/28 06:06:04;;;;;;;29.23;12.13;;;8.80;99.90;;;;;;5049696;28;20108;-67
2021/10/28 06:08:31;;;;;;;25.95;12.75;;;8.90;99.90;;;;;;5068486;28;20028;-68
2021/10/28 06:10:56;;;;;;;24.92;13.18;;;8.80;99.90;;;;;;5058034;28;20043;-68
2021/10/28 06:13:23;;;;;;;19.30;13.85;;;8.70;99.90;;;;;;5048103;28;20389;-67
2021/10/28 06:15:49;;;;;;;17.50;12.82;;;8.80;99.90;;;;;;5048842;28;20032;-67
2021/10/28 06:20:44;;;;;;;27.25;14.27;;;8.90;99.90;;;;;;5042736;28;21437;-66
2021/10/28 06:23:12;;;;;;;18.48;13.05;;;9.00;99.90;;;;;;5051129;28;20116;-67
2021/10/28 06:25:38;;;;;;;21.73;13.52;;;9.00;99.90;;;;;;5048712;28;20107;-70
2021/10/28 06:28:04;;;;;;;22.60;14.02;;;9.70;99.90;;;;;;5046517;28;20147;-66
2021/10/28 06:30:31;;;;;;;19.55;13.13;;;9.70;99.90;;;;;;5051032;28;20041;-67
2021/10/28 06:33:03;;;;;;;18.45;12.85;;;9.20;99.90;;;;;;5051456;28;20032;-67
2021/10/28 06:35:29;;;;;;;19.13;12.80;;;9.10;99.90;;;;;;5050271;28;20021;-66
2021/10/28 06:37:55;;;;;;;20.90;14.15;;;9.00;99.90;;;;;;5052093;28;20436;-66
2021/10/28 06:40:25;;;;;;;21.17;14.15;;;8.80;99.90;;;;;;5049607;28;20057;-66
2021/10/28 06:42:52;;;;;;;17.33;12.95;;;8.80;99.90;;;;;;5051441;28;20120;-67
2021/10/28 06:45:19;;;;;;;20.13;12.20;;;8.60;99.90;;;;;;5049849;28;20025;-67
2021/10/28 06:47:45;;;;;;;23.45;14.40;;;8.70;99.90;;;;;;5050573;28;20025;-67
2021/10/28 06:50:13;;;;;;;21.70;14.05;;;8.70;99.90;;;;;;5050198;28;20033;-67
2021/10/28 06:56:04;;;;;;;22.42;13.70;;;9.10;99.90;;;;;;5049249;28;20101;-66
2021/10/28 07:03:31;;;;;;;28.05;14.48;;;9.00;99.90;;;;;;5050676;28;20513;-67
2021/10/28 07:06:09;;;;;;;23.55;15.43;;;9.10;99.90;;;;;;5048261;28;20406;-67
2021/10/28 07:08:38;;;;;;;26.20;15.10;;;9.10;99.90;;;;;;5049467;28;20120;-72
2021/10/28 07:11:08;;;;;;;25.90;16.83;;;9.00;99.90;;;;;;5031392;28;20032;-66
2021/10/28 07:13:35;;;;;;;34.85;16.20;;;8.80;99.90;;;;;;5030373;28;20385;-67
2021/10/28 07:16:13;;;;;;;27.30;16.00;;;8.90;99.90;;;;;;5031226;28;20084;-67
2021/10/28 07:27:07;;;;;;;35.03;19.02;;;8.70;99.90;;;;;;5031061;28;20029;-78
2021/10/28 08:13:29;;;;;;;25.00;16.90;;;11.90;99.90;;;;;;5030234;28;20375;-66
2021/10/28 08:15:25;;;;;;;29.08;16.80;;;11.30;99.90;;;;;;5031113;28;20104;-66
2021/10/28 08:31:00;;;;;;;20.45;14.00;;;10.50;99.90;;;;;;5030945;28;20091;-67
2021/10/28 08:33:26;;;;;;;16.60;12.80;;;10.20;99.90;;;;;;5029871;28;20386;-66
2021/10/28 08:35:54;;;;;;;15.95;12.00;;;10.00;99.90;;;;;;5030969;28;20532;-66
2021/10/28 08:38:21;;;;;;;15.93;12.43;;;10.00;99.90;;;;;;5030495;28;20025;-66
2021/10/28 08:40:50;;;;;;;18.00;12.43;;;9.80;99.90;;;;;;5031098;28;20524;-67
2021/10/28 08:43:17;;;;;;;24.00;13.45;;;9.70;99.90;;;;;;5029405;28;20378;-65
2021/10/28 08:45:44;;;;;;;19.65;12.18;;;9.90;99.90;;;;;;5030390;28;20060;-66
2021/10/28 08:48:10;;;;;;;19.05;12.93;;;9.50;99.90;;;;;;5030754;28;20080;-67
2021/10/28 08:50:45;;;;;;;25.98;13.60;;;9.50;99.90;;;;;;5034173;28;20478;-66
2021/10/28 09:26:14;;;;;;;19.60;14.15;;;9.40;99.90;;;;;;5053293;28;20027;-67
2021/10/28 09:28:44;;;;;;;19.88;13.00;;;9.90;99.90;;;;;;5052852;28;20056;-67
2021/10/28 09:31:14;;;;;;;30.25;15.10;;;10.50;99.90;;;;;;5052581;28;20115;-66
2021/10/28 09:51:46;;;;;;;28.85;17.95;;;9.30;99.90;;;;;;5032544;28;20068;-67
2021/10/28 09:54:21;;;;;;;27.15;17.73;;;9.30;99.90;;;;;;5051646;28;20036;-66
2021/10/28 09:59:58;;;;;;;37.53;19.92;;;9.30;99.90;;;;;;5051944;28;20122;-66
2021/10/28 10:02:40;;;;;;;40.08;21.65;;;9.20;99.90;;;;;;5050722;28;20039;-76
2021/10/28 10:05:05;;;;;;;;;;;9.10;99.90;;;;;;5053817;28;20029;-66
2021/10/28 10:07:32;;;;;;;33.42;19.20;;;9.10;99.90;;;;;;5052281;28;19932;-66
2021/10/28 10:10:00;;;;;;;34.25;19.75;;;9.20;99.90;;;;;;5052983;28;20029;-65
2021/10/28 10:12:27;;;;;;;45.33;20.60;;;9.30;99.90;;;;;;5050764;28;20024;-65
2021/10/28 10:14:53;;;;;;;32.58;18.27;;;9.10;99.90;;;;;;5051510;28;20025;-66
2021/10/28 10:17:19;;;;;;;35.20;20.42;;;9.10;99.90;;;;;;5051341;28;20045;-66
2021/10/28 10:19:51;;;;;;;30.73;18.85;;;9.20;99.90;;;;;;5050329;28;20029;-65
2021/10/28 10:22:39;;;;;;;25.10;16.75;;;9.20;99.90;;;;;;5051699;28;20029;-67
2021/10/28 10:25:36;;;;;;;29.15;18.27;;;9.00;99.90;;;;;;5052349;28;20366;-65
2021/10/28 11:04:27;;;;;;;29.25;18.77;;;8.90;99.90;;;;;;5032224;28;20450;-66
2021/10/28 11:21:33;;;;;;;25.27;16.83;;;9.00;99.90;;;;;;5030835;28;20079;-65
2021/10/28 11:24:15;;;;;;;26.95;17.42;;;9.00;99.90;;;;;;5031265;28;20040;-66
2021/10/28 12:50:29;;;;;;;34.03;18.63;;;9.60;99.90;;;;;;5054387;28;20354;-66
2021/10/28 13:50:06;;;;;;;36.80;19.15;;;10.00;99.90;;;;;;5052944;28;20366;-66
2021/10/28 14:32:44;;;;;;;29.88;17.88;;;10.20;99.90;;;;;;5051936;28;20040;-66
2021/10/28 15:02:45;;;;;;;27.67;17.90;;;11.00;99.90;;;;;;5051874;28;20339;-66
2021/10/28 15:30:39;;;;;;;33.08;17.48;;;10.70;99.90;;;;;;5048927;28;20394;-66
2021/10/28 15:38:04;;;;;;;32.72;17.83;;;10.70;99.90;;;;;;5044011;28;20108;-67
2021/10/28 15:57:23;;;;;;;30.88;18.45;;;10.70;99.90;;;;;;5050415;28;20441;-66
2021/10/28 16:00:07;;;;;;;34.28;18.60;;;10.70;99.90;;;;;;5049247;28;20025;-66
2021/10/28 16:24:14;;;;;;;32.75;20.08;;;10.70;99.90;;;;;;5050487;28;20036;-68
2021/10/28 16:26:40;;;;;;;34.47;20.10;;;10.60;99.90;;;;;;5049210;28;20058;-66
2021/10/28 16:29:07;;;;;;;34.83;20.38;;;10.60;99.90;;;;;;5049646;28;20334;-66
2021/10/28 16:31:36;;;;;;;38.60;20.85;;;10.70;99.90;;;;;;5050533;28;20025;-66
2021/10/28 16:34:02;;;;;;;37.92;20.20;;;10.70;99.90;;;;;;5049495;28;20028;-66
2021/10/28 16:36:29;;;;;;;34.08;19.48;;;10.70;99.90;;;;;;5048878;28;20017;-66
2021/10/28 16:38:57;;;;;;;35.00;19.98;;;10.70;99.90;;;;;;5049800;28;20052;-66
2021/10/28 16:41:22;;;;;;;32.63;20.02;;;10.60;99.90;;;;;;5050095;28;20346;-66
2021/10/28 16:43:48;;;;;;;33.78;19.90;;;10.60;99.90;;;;;;5049787;28;20021;-65
2021/10/28 16:46:14;;;;;;;35.60;20.60;;;10.60;99.90;;;;;;5048628;28;20441;-66
2021/10/28 16:48:40;;;;;;;33.78;20.55;;;10.70;99.90;;;;;;5050051;28;20039;-67
2021/10/28 16:51:06;;;;;;;37.45;20.90;;;10.70;99.90;;;;;;5048384;28;20056;-67
2021/10/28 16:53:33;;;;;;;38.95;21.13;;;10.70;99.90;;;;;;5050282;28;20047;-67
2021/10/28 16:55:59;;;;;;;29.85;19.48;;;10.60;99.90;;;;;;5049873;28;20040;-67
2021/10/28 16:58:26;;;;;;;32.83;20.48;;;10.60;99.90;;;;;;5048658;28;20033;-66
2021/10/28 17:00:53;;;;;;;35.65;20.58;;;10.60;99.90;;;;;;5049443;28;20033;-66
2021/10/28 17:03:19;;;;;;;34.97;21.60;;;10.50;99.90;;;;;;5050037;28;20112;-67
2021/10/28 17:05:46;;;;;;;37.35;21.92;;;10.60;99.90;;;;;;5048851;28;20432;-68
2021/10/28 17:08:12;;;;;;;51.60;21.75;;;10.60;99.90;;;;;;5048327;28;20493;-66
2021/10/28 17:10:38;;;;;;;46.40;22.35;;;10.60;99.90;;;;;;5052752;28;20032;-67
2021/10/28 17:13:04;;;;;;;36.08;21.67;;;10.60;99.90;;;;;;5052272;28;20178;-66
2021/10/28 17:15:30;;;;;;;40.17;20.60;;;10.60;99.90;;;;;;5053976;28;20082;-66
2021/10/28 17:17:56;;;;;;;42.33;21.13;;;10.60;99.90;;;;;;5051888;28;20127;-67
2021/10/28 17:20:22;;;;;;;32.55;20.67;;;10.60;99.90;;;;;;5052552;28;20029;-67
2021/10/28 17:22:49;;;;;;;35.42;20.30;;;10.60;99.90;;;;;;5052294;28;20028;-67
2021/10/28 17:25:20;;;;;;;36.20;22.08;;;10.60;99.90;;;;;;5053450;28;20066;-66
2021/10/28 17:27:47;;;;;;;35.55;20.63;;;10.50;99.90;;;;;;5052232;28;20478;-66
2021/10/28 17:30:14;;;;;;;35.60;20.95;;;10.60;99.90;;;;;;5052963;28;20040;-68
2021/10/28 17:32:42;;;;;;;37.85;21.10;;;10.60;99.90;;;;;;5052086;28;20021;-67
2021/10/28 17:35:09;;;;;;;33.67;19.70;;;10.60;99.90;;;;;;5047820;28;20055;-66
2021/10/28 17:37:35;;;;;;;34.42;19.58;;;10.60;99.90;;;;;;5042429;28;20029;-67
2021/10/28 17:40:02;;;;;;;55.25;21.40;;;10.60;99.90;;;;;;5035583;28;20040;-66
2021/10/28 17:42:28;;;;;;;41.28;21.92;;;10.60;99.90;;;;;;5031969;28;20033;-67
2021/10/28 17:44:57;;;;;;;36.50;21.45;;;10.60;99.90;;;;;;5045588;28;20044;-67
2021/10/28 17:47:24;;;;;;;38.30;20.48;;;10.60;99.90;;;;;;5048838;28;20037;-66
2021/10/28 17:49:51;;;;;;;31.80;20.30;;;10.50;99.90;;;;;;5052224;28;20434;-67
2021/10/28 17:52:18;;;;;;;32.28;20.45;;;10.60;99.90;;;;;;5051991;28;20029;-67
2021/10/28 17:54:44;;;;;;;34.33;20.60;;;10.60;99.90;;;;;;5043916;28;20433;-67
2021/10/28 17:57:10;;;;;;;35.30;20.90;;;10.60;99.90;;;;;;5042834;28;20032;-67
2021/10/28 17:59:36;;;;;;;32.28;20.33;;;10.70;99.90;;;;;;5039032;28;20033;-66
2021/10/28 18:02:03;;;;;;;33.72;20.60;;;10.70;99.90;;;;;;5050694;28;20099;-68
2021/10/28 18:04:29;;;;;;;34.08;20.70;;;10.70;99.90;;;;;;5049825;28;20029;-67
2021/10/28 18:06:54;;;;;;;31.05;19.38;;;10.60;99.90;;;;;;5048963;28;20069;-68
2021/10/28 18:09:23;;;;;;;36.20;21.40;;;10.60;99.90;;;;;;5051053;28;20029;-67
2021/10/28 18:11:53;;;;;;;37.83;22.40;;;10.60;99.90;;;;;;5052979;28;20108;-67
2021/10/28 18:14:19;;;;;;;35.75;21.08;;;10.60;99.90;;;;;;5049917;28;20157;-67
2021/10/28 18:16:46;;;;;;;38.47;20.95;;;10.60;99.90;;;;;;5050091;28;20449;-68
2021/10/28 18:19:12;;;;;;;58.33;22.42;;;10.60;99.90;;;;;;5050363;28;20045;-66
2021/10/28 18:21:42;;;;;;;39.05;21.45;;;10.60;99.90;;;;;;5052393;28;20513;-66
2021/10/28 18:24:08;;;;;;;36.55;21.73;;;10.60;99.90;;;;;;5052269;28;20470;-68
2021/10/28 18:26:34;;;;;;;42.60;22.95;;;10.60;99.90;;;;;;5052330;28;20033;-67
2021/10/28 18:29:00;;;;;;;45.28;21.70;;;10.60;99.90;;;;;;5052208;28;20063;-67
2021/10/28 18:31:27;;;;;;;33.13;20.02;;;10.60;99.90;;;;;;5052421;28;20148;-69
2021/10/28 18:33:56;;;;;;;41.22;22.38;;;10.60;99.90;;;;;;5052081;28;20044;-68
2021/10/28 18:36:22;;;;;;;41.03;21.77;;;10.60;99.90;;;;;;5052173;28;20143;-67
2021/10/28 18:38:49;;;;;;;38.95;20.75;;;10.60;99.90;;;;;;5048267;28;20036;-67
2021/10/28 18:41:16;;;;;;;40.40;21.98;;;10.60;99.90;;;;;;5042051;28;20032;-68
2021/10/28 18:43:46;;;;;;;36.00;20.63;;;10.60;99.90;;;;;;5051824;28;20041;-65
2021/10/28 18:46:13;;;;;;;31.50;19.88;;;10.60;99.90;;;;;;5050009;28;20039;-67
2021/10/28 18:48:39;;;;;;;37.92;21.45;;;10.60;99.90;;;;;;5051017;28;20071;-67
2021/10/28 18:51:05;;;;;;;38.75;22.92;;;10.60;99.90;;;;;;5051569;28;20490;-67
2021/10/28 18:53:38;;;;;;;33.47;20.55;;;10.50;99.90;;;;;;5052349;28;20036;-68
2021/10/28 18:56:04;;;;;;;33.20;20.77;;;10.60;99.90;;;;;;5051445;28;20033;-67
2021/10/28 18:58:30;;;;;;;37.20;21.13;;;10.60;99.90;;;;;;5050603;28;20033;-67
2021/10/28 19:00:56;;;;;;;32.63;20.20;;;10.60;99.90;;;;;;5050663;28;20109;-67
2021/10/28 19:03:22;;;;;;;35.40;21.85;;;10.60;99.90;;;;;;5052699;28;20033;-67
2021/10/28 19:05:55;;;;;;;38.45;22.88;;;10.50;99.90;;;;;;5050695;28;20025;-70
2021/10/28 19:08:20;;;;;;;38.67;22.13;;;10.50;99.90;;;;;;5052377;28;20104;-68
2021/10/28 19:10:46;;;;;;;38.97;22.33;;;10.50;99.90;;;;;;5052313;28;20107;-67
2021/10/28 19:13:12;;;;;;;34.58;20.95;;;10.40;99.90;;;;;;5051993;28;20040;-67
2021/10/28 19:15:38;;;;;;;44.50;21.67;;;10.40;99.90;;;;;;5050845;28;20021;-65
2021/10/28 19:18:06;;;;;;;55.78;22.15;;;10.40;99.90;;;;;;5051669;28;20029;-68
2021/10/28 19:20:32;;;;;;;35.60;20.40;;;10.40;99.90;;;;;;5051026;28;20032;-67
2021/10/28 19:22:58;;;;;;;34.70;21.55;;;10.40;99.90;;;;;;5050693;28;20029;-68
2021/10/28 19:25:24;;;;;;;32.28;20.27;;;10.30;99.90;;;;;;5051974;28;20108;-67
2021/10/28 19:27:53;;;;;;;40.03;21.55;;;10.20;99.90;;;;;;5050458;28;20049;-68
2021/10/28 19:32:45;;;;;;;46.40;22.98;;;10.20;99.90;;;;;;5051662;28;20090;-66
2021/10/28 19:35:11;;;;;;;38.03;22.55;;;10.30;99.90;;;;;;5050480;28;20470;-69
2021/10/28 19:37:50;;;;;;;39.42;20.95;;;10.20;99.90;;;;;;5036902;28;20037;-68
2021/10/28 19:40:32;;;;;;;33.10;20.00;;;10.20;99.90;;;;;;5029898;28;20773;-67
2021/10/28 19:48:10;;;;;;;36.05;23.00;;;10.00;99.90;;;;;;5031413;28;20152;-67
2021/10/28 19:50:36;;;;;;;40.05;23.08;;;10.00;99.90;;;;;;5031769;28;20523;-67
2021/10/28 19:53:02;;;;;;;31.90;20.52;;;10.00;99.90;;;;;;5029864;28;20029;-68
2021/10/28 19:55:29;;;;;;;41.85;21.80;;;10.00;99.90;;;;;;5031414;28;20039;-67
2021/10/28 19:57:55;;;;;;;35.30;20.80;;;10.00;99.90;;;;;;5031292;28;20033;-67
2021/10/28 20:00:25;;;;;;;35.58;22.13;;;10.00;99.90;;;;;;5030684;28;20030;-67
2021/10/28 20:03:42;;;;;;;35.35;21.40;;;10.00;99.90;;;;;;5014495;28;20109;-68
2021/10/28 20:05:48;;;;;;;36.38;21.65;;;9.90;99.90;;;;;;5027286;28;20124;-68
2021/10/28 20:13:57;;;;;;;34.08;21.92;;;9.90;99.90;;;;;;5031479;28;20056;-67
2021/10/28 20:22:05;;;;;;;36.25;22.55;;;9.80;99.90;;;;;;5018305;28;20053;-68
2021/10/28 20:24:31;;;;;;;37.80;21.85;;;9.80;99.90;;;;;;5029457;28;20120;-68
2021/10/28 20:26:57;;;;;;;43.88;22.35;;;9.80;99.90;;;;;;5030602;28;20037;-67
2021/10/28 20:29:22;;;;;;;35.08;21.20;;;9.80;99.90;;;;;;5030336;28;20033;-67
2021/10/28 20:31:48;;;;;;;35.15;21.17;;;9.80;99.90;;;;;;5031063;28;20030;-67
2021/10/28 20:34:27;;;;;;;34.80;21.55;;;9.70;99.90;;;;;;5030203;28;20036;-66
2021/10/28 20:39:37;;;;;;;32.95;21.92;;;9.60;99.90;;;;;;5030957;28;20029;-67
2021/10/28 20:42:03;;;;;;;37.60;22.58;;;9.60;99.90;;;;;;5030009;28;20406;-66
2021/10/28 20:44:29;;;;;;;34.45;21.80;;;9.50;99.90;;;;;;5031049;28;20117;-67
2021/10/28 20:46:55;;;;;;;36.13;23.30;;;9.50;99.90;;;;;;5034587;28;20053;-67
2021/10/28 20:49:20;;;;;;;38.17;23.58;;;9.40;99.90;;;;;;5034059;28;20109;-68
2021/10/28 20:51:46;;;;;;;36.60;22.77;;;9.40;99.90;;;;;;5034995;28;20116;-66
2021/10/28 20:54:12;;;;;;;38.22;24.80;;;9.30;99.90;;;;;;5034260;28;20184;-66
2021/10/28 20:56:38;;;;;;;69.53;25.98;;;9.30;99.90;;;;;;5035296;28;20116;-67
2021/10/28 20:59:05;;;;;;;50.88;23.65;;;9.40;99.90;;;;;;5032775;28;20356;-68
2021/10/28 21:01:31;;;;;;;46.42;23.02;;;9.40;99.90;;;;;;5034428;28;20367;-68
2021/10/28 21:03:57;;;;;;;37.25;21.98;;;9.40;99.90;;;;;;5033292;28;20057;-66
2021/10/28 21:06:23;;;;;;;37.75;23.65;;;9.40;99.90;;;;;;5032572;28;20122;-67
2021/10/28 21:08:49;;;;;;;37.45;23.20;;;9.30;99.90;;;;;;5034406;28;20430;-67
2021/10/28 21:11:15;;;;;;;38.33;24.13;;;9.30;99.90;;;;;;5034178;28;20367;-68
2021/10/28 21:13:41;;;;;;;39.28;23.83;;;9.30;99.90;;;;;;5034198;28;20057;-67
2021/10/28 21:16:07;;;;;;;36.45;22.60;;;9.20;99.90;;;;;;5032775;28;20118;-67
2021/10/28 21:18:33;;;;;;;40.40;22.20;;;9.20;99.90;;;;;;5034474;28;20114;-67
2021/10/28 21:20:59;;;;;;;33.35;21.38;;;9.20;99.90;;;;;;5034301;28;20196;-67
2021/10/28 21:23:24;;;;;;;36.42;22.67;;;9.20;99.90;;;;;;5033527;28;20032;-67
2021/10/28 21:25:50;;;;;;;45.88;23.33;;;9.10;99.90;;;;;;5032646;28;20056;-67
2021/10/28 21:28:17;;;;;;;36.80;22.17;;;9.10;99.90;;;;;;5033529;28;20165;-67
2021/10/28 21:30:45;;;;;;;34.00;22.70;;;9.20;99.90;;;;;;5032791;28;20048;-67
2021/10/28 21:33:12;;;;;;;38.28;23.13;;;9.10;99.90;;;;;;5032205;28;20182;-66
2021/10/28 21:35:38;;;;;;;37.90;23.08;;;9.10;99.90;;;;;;5032794;28;20139;-66
2021/10/28 21:38:03;;;;;;;34.55;22.17;;;9.10;99.90;;;;;;5033361;28;20069;-70
2021/10/28 21:40:30;;;;;;;33.75;21.67;;;9.10;99.90;;;;;;5033678;28;20030;-67
2021/10/28 21:42:57;;;;;;;41.92;22.88;;;9.00;99.90;;;;;;5034262;28;20052;-67
2021/10/28 21:45:23;;;;;;;34.92;22.13;;;9.20;99.90;;;;;;5032059;28;20303;-66
2021/10/28 21:47:50;;;;;;;38.17;22.50;;;9.00;99.90;;;;;;5032665;28;20033;-67